Data for 04/16/2013

Time Sea-Level Adjusted Pressure Absolute Pressure Temperature Relative Humidity Dew Point   
(mb) (inHg) (mb) (inHg) (C) (F) (%) (C) (F)
00:05 1017 30.03 846 24.98 -6.4 20.4 70 -11 12.2
00:10 1017 30.03 846 24.98 -6.5 20.3 71 -11 12.3
00:15 1017 30.03 846 24.98 -6.5 20.2 72 -10.8 12.6
00:20 1017 30.03 846 24.98 -6.6 20.1 74 -10.5 13
00:25 1017 30.03 846 24.98 -6.7 20 75 -10.5 13.1
00:30 1017 30.03 846 24.98 -6.7 19.9 75 -10.4 13.2
00:35 1017 30.03 846 24.98 -6.8 19.8 75 -10.5 13.1
00:40 1017 30.03 846 24.98 -6.8 19.8 75 -10.4 13.3
00:45 1017 30.03 846 24.98 -6.9 19.7 75 -10.5 13.1
00:50 1017 30.03 847 25.01 -6.9 19.6 75 -10.6 13
00:55 1017 30.03 847 25.01 -6.9 19.5 75 -10.6 12.9
01:00 1017 30.03 847 25.01 -7 19.4 76 -10.6 12.9
01:05 1018 30.06 847 25.01 -7 19.4 75 -10.7 12.8
01:10 1018 30.06 847 25.01 -7 19.3 75 -10.7 12.7
01:15 1018 30.06 847 25.01 -7 19.3 75 -10.7 12.7
01:20 1018 30.06 847 25.01 -7.1 19.3 76 -10.6 12.8
01:25 1018 30.06 847 25.01 -7.1 19.2 76 -10.7 12.8
01:30 1018 30.06 847 25.01 -7.1 19.2 76 -10.7 12.7
01:35 1018 30.06 847 25.01 -7.1 19.2 76 -10.7 12.7
01:40 1018 30.06 847 25.01 -7.1 19.2 75 -10.8 12.6
01:45 1018 30.06 847 25.01 -7.1 19.2 76 -10.7 12.8
01:50 1018 30.06 847 25.01 -7.1 19.1 76 -10.6 12.9
01:55 1018 30.06 847 25.01 -7.2 19.1 76 -10.7 12.8
02:00 1018 30.06 847 25.01 -7.2 19 76 -10.7 12.8
02:05 1018 30.06 847 25.01 -7.2 19 76 -10.8 12.5
02:10 1018 30.06 847 25.01 -7.2 19 75 -10.8 12.5
02:15 1018 30.06 847 25.01 -7.2 19 75 -11 12.2
02:20 1018 30.06 847 25.01 -7.2 19 75 -11 12.3
02:25 1018 30.06 847 25.01 -7.3 19 75 -10.9 12.3
02:30 1018 30.06 847 25.01 -7.3 18.8 75 -11.1 12.1
02:35 1018 30.06 847 25.01 -7.3 18.9 74 -11.1 12.1
02:40 1018 30.06 847 25.01 -7.3 18.9 74 -11.2 11.9
02:45 1018 30.06 847 25.01 -7.2 19 73 -11.2 11.8
02:50 1018 30.06 847 25.01 -7.2 19 73 -11.2 11.8
02:55 1018 30.06 847 25.01 -7.2 19 73 -11.2 11.8
03:00 1018 30.06 847 25.01 -7.3 18.9 73 -11.3 11.7
03:05 1018 30.06 847 25.01 -7.3 19 73 -11.3 11.7
03:10 1018 30.06 847 25.01 -7.2 19 73 -11.3 11.7
03:15 1018 30.06 847 25.01 -7.3 18.9 74 -11.1 11.9
03:20 1018 30.06 847 25.01 -7.3 18.9 74 -11.1 12
03:25 1018 30.06 847 25.01 -7.3 18.8 74 -11.1 12
03:30 1018 30.06 847 25.01 -7.3 18.9 75 -11.1 12.1
03:35 1018 30.06 847 25.01 -7.3 18.8 75 -11.1 12.1
03:40 1018 30.06 847 25.01 -7.3 18.8 74 -11.2 11.8
03:45 1018 30.06 847 25.01 -7.3 18.9 72 -11.5 11.4
03:50 1018 30.06 848 25.04 -7.4 18.8 72 -11.6 11
03:55 1018 30.06 847 25.01 -7.5 18.6 71 -11.9 10.6
04:00 1018 30.06 847 25.01 -7.6 18.4 71 -11.9 10.6
04:05 1018 30.06 847 25.01 -7.6 18.3 71 -11.9 10.6
04:10 1018 30.06 847 25.01 -7.5 18.4 71 -11.9 10.5
04:15 1018 30.06 847 25.01 -7.5 18.6 71 -11.9 10.5
04:20 1018 30.06 847 25.01 -7.5 18.6 70 -12 10.4
04:25 1018 30.06 847 25.01 -7.5 18.6 72 -11.7 10.9
04:30 1018 30.06 847 25.01 -7.6 18.4 72 -11.7 10.9
04:35 1018 30.06 847 25.01 -7.6 18.3 72 -11.7 10.9
04:40 1018 30.06 847 25.01 -7.6 18.3 72 -11.7 10.9
04:45 1018 30.06 847 25.01 -7.7 18.2 74 -11.5 11.3
04:50 1018 30.06 847 25.01 -7.7 18.2 74 -11.5 11.3
04:55 1018 30.06 847 25.01 -7.8 18.1 74 -11.7 11
05:00 1018 30.06 847 25.01 -7.8 18 72 -11.9 10.5
05:05 1018 30.06 847 25.01 -7.8 17.9 71 -12.2 10
05:10 1018 30.06 847 25.01 -7.8 17.9 70 -12.4 9.7
05:15 1018 30.06 847 25.01 -7.9 17.8 69 -12.5 9.4
05:20 1018 30.06 847 25.01 -7.9 17.8 69 -12.6 9.3
05:25 1018 30.06 847 25.01 -7.9 17.8 68 -12.8 9
05:30 1018 30.06 847 25.01 -7.9 17.9 68 -12.8 8.9
05:35 1018 30.06 847 25.01 -7.9 17.9 68 -12.8 8.9
05:40 1018 30.06 847 25.01 -7.9 17.7 68 -12.8 8.9
05:45 1018 30.06 847 25.01 -8 17.6 68 -12.9 8.9
05:50 1018 30.06 847 25.01 -8.1 17.5 69 -12.9 8.8
05:55 1018 30.06 847 25.01 -8.1 17.4 69 -12.9 8.8
06:00 1018 30.06 847 25.01 -8.1 17.4 69 -12.9 8.8
06:05 1018 30.06 847 25.01 -8.1 17.4 69 -12.8 8.9
06:10 1018 30.06 847 25.01 -8 17.5 69 -12.7 9.1
06:15 1018 30.06 847 25.01 -8 17.6 69 -12.7 9.2
06:20 1018 30.06 848 25.04 -8 17.6 69 -12.7 9.1
06:25 1018 30.06 848 25.04 -7.9 17.7 69 -12.7 9.1
06:30 1018 30.06 848 25.04 -7.8 17.9 68 -12.7 9.1
06:35 1018 30.06 848 25.04 -7.7 18.1 68 -12.7 9.2
06:40 1018 30.06 848 25.04 -7.7 18.1 68 -12.6 9.3
06:45 1018 30.06 848 25.04 -7.6 18.3 68 -12.6 9.3
06:50 1018 30.06 848 25.04 -7.5 18.4 67 -12.6 9.3
06:55 1018 30.06 848 25.04 -7.5 18.6 67 -12.6 9.4
07:00 1018 30.06 848 25.04 -7.4 18.7 68 -12.4 9.7
07:05 1018 30.06 848 25.04 -7.3 18.9 67 -12.5 9.5
07:10 1018 30.06 848 25.04 -7.2 19.1 66 -12.5 9.5
07:15 1018 30.06 848 25.04 -6.9 19.6 65 -12.4 9.7
07:20 1018 30.06 848 25.04 -6.3 20.6 63 -12.2 10
07:25 1019 30.09 848 25.04 -6 21.3 62 -12.1 10.3
07:30 1019 30.09 848 25.04 -5.9 21.4 61 -12.2 10
07:35 1019 30.09 848 25.04 -5.6 21.9 58 -12.6 9.4
07:40 1019 30.09 848 25.04 -5.2 22.7 57 -12.4 9.7
07:45 1019 30.09 848 25.04 -5 23 56 -12.5 9.4
07:50 1019 30.09 848 25.04 -4.8 23.3 56 -12.2 10
07:55 1019 30.09 848 25.04 -4.4 24 55 -12.1 10.2
08:00 1019 30.09 848 25.04 -4.5 23.9 54 -12.5 9.6
08:05 1019 30.09 848 25.04 -4.6 23.7 53 -12.8 9
08:10 1019 30.09 848 25.04 -4.4 24.2 52 -12.9 8.8
08:15 1019 30.09 848 25.04 -4.3 24.2 51 -13.2 8.3
08:20 1019 30.09 848 25.04 -4.6 23.7 54 -12.6 9.3
08:25 1019 30.09 848 25.04 -5 23 55 -12.8 9
08:30 1019 30.09 848 25.04 -5.2 22.7 55 -13 8.7
08:35 1019 30.09 848 25.04 -4.9 23.2 53 -13 8.7
08:40 1019 30.09 848 25.04 -5 23 54 -12.9 8.7
08:45 1019 30.09 848 25.04 -4.9 23.2 54 -12.9 8.8
08:50 1019 30.09 848 25.04 -4.8 23.3 56 -12.4 9.6
08:55 1019 30.09 848 25.04 -4.7 23.5 55 -12.4 9.6
09:00 1019 30.09 848 25.04 -4.3 24.3 54 -12.2 10.1
09:05 1019 30.09 848 25.04 -4.2 24.4 55 -12 10.4
09:10 1019 30.09 848 25.04 -4.3 24.3 54 -12.3 9.9
09:15 1019 30.09 848 25.04 -4.6 23.8 56 -12.1 10.2
09:20 1019 30.09 848 25.04 -4.8 23.5 55 -12.5 9.5
09:25 1019 30.09 848 25.04 -4.7 23.6 57 -12 10.3
09:30 1019 30.09 848 25.04 -4.6 23.7 57 -12 10.5
09:35 1019 30.09 848 25.04 -4.4 24.1 56 -12 10.5
09:40 1019 30.09 848 25.04 -4.6 23.7 62 -10.8 12.6
09:45 1019 30.09 848 25.04 -4.8 23.3 63 -10.9 12.4
09:50 1019 30.09 848 25.04 -5 23 65 -10.6 12.9
09:55 1019 30.09 848 25.04 -5 23 65 -10.6 12.9
10:00 1019 30.09 848 25.04 -4.7 23.5 65 -10.4 13.4
10:05 1019 30.09 848 25.04 -4.6 23.7 65 -10.2 13.6
10:10 1019 30.09 848 25.04 -4.3 24.2 66 -9.9 14.2
10:15 1019 30.09 848 25.04 -4.6 23.7 67 -9.8 14.3
10:20 1019 30.09 848 25.04 -4.6 23.7 64 -10.4 13.3
10:25 1019 30.09 848 25.04 -4.3 24.3 61 -10.8 12.6
10:30 1019 30.09 848 25.04 -4.3 24.3 63 -10.3 13.4
10:35 1019 30.09 848 25.04 -4.4 24.1 64 -10.2 13.6
10:40 1019 30.09 848 25.04 -4 24.9 57 -11.2 11.8
10:45 1019 30.09 848 25.04 -4.1 24.7 62 -10.2 13.6
10:50 1019 30.09 848 25.04 -3.7 25.3 59 -10.6 12.9
10:55 1019 30.09 848 25.04 -3.6 25.5 60 -10.3 13.4
11:00 1019 30.09 848 25.04 -3.5 25.7 63 -9.5 14.8
11:05 1019 30.09 848 25.04 -3.1 26.3 55 -11.1 12.1
11:10 1019 30.09 848 25.04 -3.4 25.9 59 -10.4 13.3
11:15 1019 30.09 848 25.04 -3.4 25.9 55 -11.2 11.8
11:20 1019 30.09 848 25.04 -3 26.5 56 -10.6 12.9
11:25 1019 30.09 848 25.04 -3.1 26.4 56 -10.6 12.9
11:30 1019 30.09 848 25.04 -3 26.7 54 -11 12.2
11:35 1019 30.09 848 25.04 -3.2 26.2 55 -10.9 12.3
11:40 1019 30.09 848 25.04 -3.4 25.9 57 -10.7 12.7
11:45 1019 30.09 848 25.04 -3.5 25.8 62 -9.7 14.5
11:50 1019 30.09 848 25.04 -3.9 25 69 -8.9 16.1
11:55 1019 30.09 848 25.04 -4.3 24.2 70 -9 15.8
12:00 1019 30.09 848 25.04 -4.2 24.4 72 -8.6 16.6
12:05 1019 30.09 848 25.04 -3.8 25.1 73 -7.9 17.8
12:10 1019 30.09 848 25.04 -3.9 25 71 -8.3 17
12:15 1019 30.09 848 25.04 -4.1 24.6 72 -8.4 16.9
12:20 1019 30.09 848 25.04 -4 24.7 71 -8.6 16.5
12:25 1019 30.09 848 25.04 -4.1 24.7 73 -8.2 17.2
12:30 1019 30.09 848 25.04 -4.3 24.2 72 -8.6 16.6
12:35 1019 30.09 848 25.04 -3.8 25.1 69 -8.8 16.2
12:40 1019 30.09 848 25.04 -3.4 25.8 68 -8.6 16.5
12:45 1019 30.09 848 25.04 -3.7 25.3 69 -8.6 16.4
12:50 1019 30.09 848 25.04 -3.7 25.3 68 -8.8 16.1
12:55 1019 30.09 848 25.04 -3.9 24.9 68 -9 15.8
13:00 1019 30.09 848 25.04 -4.1 24.7 73 -8.2 17.3
13:05 1019 30.09 848 25.04 -3.9 24.9 68 -9.1 15.6
13:10 1019 30.09 848 25.04 -3.6 25.6 63 -9.7 14.6
13:15 1019 30.09 848 25.04 -3.1 26.3 61 -9.6 14.8
13:20 1019 30.09 848 25.04 -3.3 26.1 66 -8.8 16.1
13:25 1019 30.09 848 25.04 -3.6 25.6 65 -9.3 15.3
13:30 1019 30.09 848 25.04 -3.7 25.4 68 -8.8 16.2
13:35 1019 30.09 848 25.04 -3.5 25.7 65 -9.2 15.5
13:40 1019 30.09 848 25.04 -3.5 25.7 71 -8.1 17.5
13:45 1019 30.09 848 25.04 -3.7 25.3 74 -7.8 18
13:50 1019 30.09 848 25.04 -3.7 25.3 72 -8 17.6
13:55 1019 30.09 848 25.04 -3.4 25.9 67 -8.6 16.5
14:00 1019 30.09 848 25.04 -3.3 26.1 69 -8.2 17.3
14:05 1019 30.09 848 25.04 -4 24.9 76 -7.7 18.2
14:10 1019 30.09 848 25.04 -4.1 24.6 75 -7.8 17.9
14:15 1019 30.09 848 25.04 -4.2 24.4 75 -7.9 17.7
14:20 1019 30.09 848 25.04 -3.9 25 73 -8 17.5
14:25 1019 30.09 848 25.04 -3.6 25.5 68 -8.7 16.3
14:30 1019 30.09 848 25.04 -3 26.6 61 -9.5 14.9
14:35 1019 30.09 848 25.04 -2 28.3 59 -9.1 15.6
14:40 1019 30.09 848 25.04 -1.4 29.5 56 -9 15.7
14:45 1019 30.09 848 25.04 -2.1 28.3 62 -8.5 16.7
14:50 1019 30.09 848 25.04 -2.5 27.5 64 -8.4 16.9
14:55 1019 30.09 848 25.04 -2.4 27.6 66 -7.9 17.8
15:00 1019 30.09 848 25.04 -2.6 27.2 66 -8.2 17.2
15:05 1019 30.09 848 25.04 -2.8 27 63 -8.9 16
15:10 1019 30.09 848 25.04 -2.7 27.2 62 -8.9 15.9
15:15 1019 30.09 848 25.04 -2.4 27.7 62 -8.8 16.2
15:20 1019 30.09 848 25.04 -2.2 28.1 62 -8.5 16.7
15:25 1019 30.09 848 25.04 -2.6 27.3 66 -8.2 17.2
15:30 1019 30.09 848 25.04 -2.9 26.8 64 -8.9 16.1
15:35 1019 30.09 849 25.07 -2.7 27.2 68 -7.7 18.1
15:40 1019 30.09 849 25.07 -3.1 26.4 68 -8.1 17.4
15:45 1019 30.09 849 25.07 -3.2 26.3 65 -8.9 16
15:50 1019 30.09 849 25.07 -2.8 26.9 62 -9 15.7
15:55 1019 30.09 849 25.07 -2.6 27.3 57 -10 14
16:00 1019 30.09 849 25.07 -2.6 27.3 59 -9.5 14.9
16:05 1019 30.09 849 25.07 -2.8 26.9 56 -10.4 13.4
16:10 1020 30.12 849 25.07 -2.9 26.7 64 -8.9 16
16:15 1020 30.12 849 25.07 -2.8 27 64 -8.6 16.5
16:20 1020 30.12 849 25.07 -2.7 27.2 70 -7.5 18.5
16:25 1020 30.12 849 25.07 -3.6 25.6 77 -7.1 19.2
16:30 1020 30.12 849 25.07 -3.8 25.1 79 -6.9 19.6
16:35 1020 30.12 849 25.07 -4.1 24.6 84 -6.4 20.4
16:40 1020 30.12 849 25.07 -4.1 24.7 80 -7 19.5
16:45 1020 30.12 849 25.07 -3.8 25.1 78 -7.2 19.1
16:50 1020 30.12 849 25.07 -3.7 25.4 78 -7 19.3
16:55 1020 30.12 849 25.07 -3.6 25.5 68 -8.7 16.4
17:00 1020 30.12 849 25.07 -3.6 25.6 68 -8.7 16.4
17:05 1020 30.12 849 25.07 -3.8 25.2 72 -8.1 17.4
17:10 1020 30.12 849 25.07 -3.6 25.4 67 -9 15.8
17:15 1020 30.12 849 25.07 -3.8 25.2 66 -9.3 15.2
17:20 1020 30.12 849 25.07 -3.5 25.7 65 -9.1 15.5
17:25 1020 30.12 849 25.07 -3.1 26.4 62 -9.3 15.2
17:30 1020 30.12 849 25.07 -3 26.6 60 -9.7 14.6
17:35 1020 30.12 849 25.07 -3.1 26.5 59 -9.9 14.1
17:40 1020 30.12 849 25.07 -3 26.6 56 -10.7 12.8
17:45 1020 30.12 849 25.07 -3.3 26.1 57 -10.7 12.8
17:50 1020 30.12 849 25.07 -3.2 26.2 56 -10.8 12.5
17:55 1020 30.12 849 25.07 -3.2 26.3 55 -10.9 12.4
18:00 1020 30.12 849 25.07 -3.2 26.3 53 -11.4 11.5
18:05 1020 30.12 849 25.07 -3.2 26.3 55 -10.9 12.4
18:10 1020 30.12 849 25.07 -3.2 26.2 54 -11.4 11.5
18:15 1020 30.12 849 25.07 -3.4 25.9 53 -11.6 11.1
18:20 1020 30.12 849 25.07 -3.4 25.8 54 -11.5 11.3
18:25 1020 30.12 850 25.1 -3.4 25.9 55 -11.3 11.6
18:30 1020 30.12 850 25.1 -3.5 25.8 56 -11 12.1
18:35 1020 30.12 850 25.1 -3.5 25.6 57 -10.9 12.3
18:40 1020 30.12 850 25.1 -3.6 25.5 57 -11 12.3
18:45 1020 30.12 850 25.1 -3.6 25.6 58 -10.8 12.6
18:50 1021 30.15 850 25.1 -3.6 25.6 57 -10.9 12.4
18:55 1021 30.15 850 25.1 -3.6 25.4 59 -10.6 12.9
19:00 1021 30.15 850 25.1 -3.8 25.2 60 -10.4 13.2
19:05 1021 30.15 850 25.1 -3.8 25.1 59 -10.6 12.9
19:10 1021 30.15 850 25.1 -4 24.9 60 -10.6 13
19:15 1021 30.15 850 25.1 -4 24.8 61 -10.4 13.3
19:20 1021 30.15 850 25.1 -4.1 24.7 62 -10.3 13.5
19:25 1021 30.15 850 25.1 -4.2 24.5 61 -10.5 13.1
19:30 1021 30.15 850 25.1 -4.2 24.4 62 -10.4 13.3
19:35 1021 30.15 850 25.1 -4.3 24.3 63 -10.4 13.4
19:40 1021 30.15 850 25.1 -4.4 24 63 -10.5 13.1
19:45 1021 30.15 850 25.1 -4.5 24 63 -10.4 13.3
19:50 1021 30.15 850 25.1 -4.5 23.8 64 -10.4 13.2
19:55 1021 30.15 850 25.1 -4.7 23.6 64 -10.4 13.3
20:00 1021 30.15 850 25.1 -4.7 23.5 65 -10.2 13.6
20:05 1021 30.15 851 25.13 -4.8 23.3 66 -10.1 13.7
20:10 1021 30.15 851 25.13 -4.9 23.2 67 -10.2 13.7
20:15 1021 30.15 851 25.13 -5 23 68 -10 14
20:20 1022 30.18 851 25.13 -5.1 22.8 69 -9.9 14.2
20:25 1022 30.18 851 25.13 -5.2 22.7 70 -9.9 14.2
20:30 1022 30.18 851 25.13 -5.2 22.6 70 -9.9 14.1
20:35 1022 30.18 851 25.13 -5.3 22.5 71 -9.8 14.3
20:40 1022 30.18 851 25.13 -5.3 22.5 71 -9.8 14.3
20:45 1022 30.18 851 25.13 -5.4 22.3 71 -9.8 14.3
20:50 1022 30.18 851 25.13 -5.4 22.3 71 -9.9 14.2
20:55 1022 30.18 851 25.13 -5.4 22.2 71 -9.9 14.2
21:00 1022 30.18 851 25.13 -5.5 22.1 71 -9.9 14.1
21:05 1022 30.18 851 25.13 -5.5 22 71 -9.9 14.1
21:10 1022 30.18 851 25.13 -5.6 21.9 72 -9.9 14.1
21:15 1022 30.18 851 25.13 -5.6 21.8 71 -10 13.9
21:20 1022 30.18 851 25.13 -5.7 21.8 72 -10 14
21:25 1022 30.18 851 25.13 -5.7 21.7 71 -10.1 13.8
21:30 1022 30.18 851 25.13 -5.7 21.7 72 -10 13.9
21:35 1022 30.18 851 25.13 -5.8 21.6 72 -10 14
21:40 1022 30.18 851 25.13 -5.8 21.5 72 -10 14
21:45 1022 30.18 851 25.13 -5.8 21.5 73 -9.9 14.2
21:50 1022 30.18 852 25.16 -5.9 21.4 74 -9.8 14.4
21:55 1022 30.18 852 25.16 -5.9 21.4 74 -9.8 14.4
22:00 1022 30.18 852 25.16 -5.9 21.4 74 -9.8 14.4
22:05 1022 30.18 852 25.16 -5.9 21.4 75 -9.6 14.6
22:10 1022 30.18 852 25.16 -5.9 21.4 76 -9.5 14.8
22:15 1022 30.18 852 25.16 -5.9 21.4 76 -9.5 15
22:20 1022 30.18 852 25.16 -5.8 21.5 77 -9.2 15.4
22:25 1022 30.18 852 25.16 -5.8 21.5 79 -8.9 16
22:30 1022 30.18 852 25.16 -5.9 21.4 80 -8.7 16.3
22:35 1022 30.18 852 25.16 -5.9 21.4 81 -8.6 16.5
22:40 1022 30.18 852 25.16 -5.9 21.3 82 -8.5 16.7
22:45 1022 30.18 852 25.16 -6 21.2 84 -8.3 17.1
22:50 1022 30.18 852 25.16 -6 21.2 85 -8.1 17.3
22:55 1022 30.18 852 25.16 -6 21.2 86 -8 17.6
23:00 1022 30.18 852 25.16 -6.1 21.1 85 -8.1 17.4
23:05 1022 30.18 852 25.16 -6.1 21.1 86 -8.1 17.4
23:10 1022 30.18 852 25.16 -6.1 21.1 85 -8.1 17.4
23:15 1022 30.18 852 25.16 -6 21.2 85 -8.1 17.4
23:20 1022 30.18 852 25.16 -6 21.2 85 -8.2 17.3
23:25 1022 30.18 852 25.16 -6 21.1 85 -8.2 17.3
23:30 1022 30.18 852 25.16 -6 21.1 85 -8.2 17.2
23:35 1022 30.18 852 25.16 -6 21.1 85 -8.2 17.2
23:40 1022 30.18 852 25.16 -6 21.1 85 -8.2 17.2
23:45 1022 30.18 852 25.16 -6 21.2 87 -7.9 17.8
23:50 1022 30.18 852 25.16 -6.1 20.9 87 -7.9 17.8
23:55 1022 30.18 852 25.16 -6.4 20.4 89 -8 17.6
24:00 1023 30.21 852 25.16 -6.5 20.3 88 -8.1 17.4